Flight Track Log - Related Links

Times and Time Zones

All times are in EDT time to prevent confusion due to time zone crossing. See the DAL6234 flight status page for this flight to view local times or setup timezone preferences in your user account.

Time Position Orientation Groundspeed Altitude Reporting Facility
EDT Latitude Longitude Course Direction KTS MPH feet Rate Location/Type
Thu 06:54:10 PM 43.1075 -76.1347 268° West 161 185 1,000  Level Boston Center
Thu 06:54:28 PM 43.1069 -76.1547 268° West 158 182 1,600 2,278 Climbing Boston Center
Thu 06:55:29 PM 43.0706 -76.1808 208° Southwest 215 247 4,000 2,300 Climbing Boston Center
Thu 06:56:28 PM 43.0306 -76.1244 134° Southeast 240 276 6,200 2,420 Climbing Boston Center
Thu 06:57:28 PM 42.9811 -76.0447 130° Southeast 251 289 8,800 1,850 Climbing Boston Center
Thu 06:58:28 PM 42.9233 -75.9564 132° Southeast 280 322 9,900 1,650 Climbing Boston Center
Thu 06:59:28 PM 42.8478 -75.8358 131° Southeast 347 399 12,100 2,100 Climbing Boston Center
Thu 07:00:28 PM 42.7761 -75.7244 131° Southeast 373 429 14,100 2,000 Climbing Boston Center
Thu 07:01:28 PM 42.7042 -75.6103 131° Southeast 388 447 16,100 1,900 Climbing Boston Center
Thu 07:02:28 PM 42.6303 -75.4964 131° Southeast 395 455 17,900 1,600 Climbing Boston Center
Thu 07:03:28 PM 42.5542 -75.3772 131° Southeast 400 460 19,300 1,400 Climbing Boston Center
Thu 07:04:28 PM 42.4761 -75.2525 130° Southeast 414 476 20,700 850 Climbing Boston Center
Thu 07:05:28 PM 42.4150 -75.1006 119° Southeast 438 504 21,000  Climbing Boston Center
Thu 07:06:28 PM 42.3561 -74.9436 117° Southeast 451 519 20,700 -550 Descending Boston Center
Thu 07:07:28 PM 42.3089 -74.8181 117° Southeast 462 532 19,900 -1,000 Descending Boston Center
Thu 07:08:28 PM 42.2436 -74.6361 116° Southeast 462 532 18,700 -950 Descending Boston Center
Thu 07:09:28 PM 42.1858 -74.4911 118° Southeast 451 519 18,000 -350 Descending Boston Center
Thu 07:10:28 PM 42.1364 -74.3494 115° Southeast 451 519 18,000  Level Boston Center
Thu 07:11:28 PM 42.0639 -74.1908 122° Southeast 456 525 18,000 -200 Level Boston Center
Thu 07:12:28 PM 41.9711 -74.1294 154° Southeast 421 484 17,600 -700 Descending Boston Center
Thu 07:13:28 PM 41.8736 -74.0794 159° South 386 444 16,600 -1,050 Descending Boston Center
Thu 07:14:28 PM 41.7828 -74.0353 160° South 343 395 15,500 -1,050 Descending Boston Center
Thu 07:15:28 PM 41.7164 -74.0058 162° South 298 343 14,500 -1,100 Descending Boston Center
Thu 07:16:28 PM 41.6378 -73.9733 163° South 273 314 13,300 -1,100 Descending Boston Center
Thu 07:17:28 PM 41.5756 -73.9469 162° South 268 308 12,300 -1,100 Descending Boston Center
Thu 07:18:28 PM 41.5031 -73.9147 162° South 268 308 11,100 -1,111 Descending Boston Center
Thu 07:20:10 PM 41.4000 -73.8333 149° Southeast 273 314 9,300 -719 Descending New York TRACON
Thu 07:21:15 PM 41.3167 -73.7833 156° South 289 333 9,100 -624 Descending New York TRACON
Thu 07:22:15 PM 41.2500 -73.7167 143° Southeast 282 325 8,000 -1,388 Descending New York TRACON
Thu 07:23:16 PM 41.2000 -73.6667 143° Southeast 274 315 6,300 -1,300 Descending New York TRACON
Thu 07:24:15 PM 41.1500 -73.5833 129° Southeast 251 289 5,400 -950 Descending New York TRACON
Thu 07:25:16 PM 41.1167 -73.5167 124° Southeast 236 272 4,400 -645 Descending New York TRACON
Thu 07:26:16 PM 41.0667 -73.5167 180° South 225 259 4,100 -150 Descending New York TRACON
Thu 07:27:16 PM 41.0500 -73.6000 255° West 212 244 4,100  Level New York TRACON
Thu 07:28:16 PM 41.0167 -73.6500 229° Southwest 186 214 4,100  Level New York TRACON
Thu 07:29:16 PM 40.9667 -73.6500 180° South 198 228 4,100 -200 Level New York TRACON
Thu 07:30:16 PM 40.9500 -73.7000 246° West 183 211 3,700 -600 Descending New York TRACON
Thu 07:31:16 PM 40.9333 -73.7500 246° West 184 212 2,900 -600 Descending New York TRACON
Thu 07:32:16 PM 40.8833 -73.7833 207° Southwest 162 186 2,500 -600 Descending New York TRACON
Thu 07:33:16 PM 40.8500 -73.8167 217° Southwest 146 168 1,700 -600 Descending New York TRACON
Thu 07:34:16 PM 40.8167 -73.8333 201° Southwest 130 150 1,300 -400 Descending New York TRACON
Thu 07:36:00 PM 40.7667 -73.8667 180° South  Level FlightAware Approximate
Thu 07:43:00 PM 40.7772 -73.8726 180° South  Level Estimated
Thu 07:44:00 PM 40.7772 -73.8726 180° South  Level Estimated

Login

Don't have an account? Register now (free) for customized features, flight alerts, and more!